RJFR/KKJ METAR and TAF weather

Enter ICAO airport designator
Station Type Date Time Source
RJFR METAR 2022/01/25 04:00 UTC NOAA

RJFR 250400Z 14005KT 110V200 9999 FEW030 BKN040 08/01 Q1019


Station Type Date Time Source
RJFR Decoded METAR 2022/01/25 04:00 UTC NOAA

Kitakyushu Airport, Japan (RJFR) 33-50N 130-57E 6M
Jan 24, 2022 - 11:00 PM EST / 2022.01.25 0400 UTC
Wind: from the SE (140 degrees) at 6 MPH (5 KT) (direction variable):0
Visibility: greater than 7 mile(s):0
Sky conditions: mostly cloudy
Temperature: 46 F (8 C)
Dew Point: 33 F (1 C)
Relative Humidity: 61%
Pressure (altimeter): 30.09 in. Hg (1019 hPa)
ob: RJFR 250400Z 14005KT 110V200 9999 FEW030 BKN040 08/01 Q1019
cycle: 4

Station Type Date Time Source
RJFR TAF 2022/01/24 18:00 UTC NOAA

TAF RJFR 241705Z 2418/2600 03006KT 9999 FEW030
BECMG 2500/2502 13003KT
BECMG 2506/2509 30005KT
BECMG 2515/2518 22003KT
BECMG 2521/2600 30010KT

Example: see airport list